map of KTN home
KTN - Airport
Location
City:  Ketchikan, Alaska, United States
Name:Ketchikan International Airport
ICAO:PAKT
IATA:KTN
FAA LID:KTN

Details
Type:Airport (Part 139 Class I)
Use:Public/Civil, International (customs landing rights)
Latitude:5521'15"N (55.354083)
Longitude:13142'40"W (-131.711221)
Datum:WGS 1984
Elevation:92 ft (28 m)
Variation:18.41E (WMM2015v2 magnetic declination)
-0.17 annual change
Runways:1
Longest:7500 × 150 ft (2286 × 45.5 m), paved

Time
Time Zone:UTC-9 (DST-8)
Local Time:

Weather
METAR:PAKT 041353Z AUTO 27003KT 10SM CLR M08/M12 A3015 RMK AO2 SLP211 T10781117 TSNO
TAF:PAKT 041122Z 0412/0512 32003KT P6SM SKC
FM041800 33003KT P6SM BKN050
AMD LTD TO CLD VIS AND WIND TIL 041500

Related Locations
Nearby:
Farthest:AFD: 10609 mi / 17073 km
Port Alfred, EC, ZA

Find:

   beyond  
but within

Other Information
Maps:
NOTAMs:
Links:
Sources:

  
  • flag of United States
  • flag of Alaska
  

Airport Diagram

Airport diagram for KTN

Airport diagram PDF from FAA

Sectional Chart

Flight Planning
at skyvector.com

Satellite Image

Google Maps Satellite view

 

Copyright © 2004-2019 Karl L. Swartz. All rights reserved.
The Great Circle Mapper name and logo are trademarks of the Great Circle Mapper.
All other trademarks mentioned herein belong to their respective owners.
Please see credits for attibutions and further copyright information.

  Follow gcmap on Facebook Follow gcmap on Twitter GCmap on LinkedIn

hCard Microformat

Geo Microformat